sensor_id;sensor_type;location;lat;lon;timestamp;pressure;altitude;pressure_sealevel;temperature;humidity
44140;BME280;29803;51.048;4.686;2023-04-08T00:00:13;102270.72;;;7.73;100.00
44140;BME280;29803;51.048;4.686;2023-04-08T00:02:43;102272.56;;;7.72;100.00
44140;BME280;29803;51.048;4.686;2023-04-08T00:05:14;102272.56;;;7.72;100.00
44140;BME280;29803;51.048;4.686;2023-04-08T00:07:45;102276.19;;;7.71;100.00
44140;BME280;29803;51.048;4.686;2023-04-08T00:10:15;102275.13;;;7.74;100.00
44140;BME280;29803;51.048;4.686;2023-04-08T00:12:46;102273.41;;;7.73;100.00
44140;BME280;29803;51.048;4.686;2023-04-08T00:15:17;102267.22;;;7.72;100.00
44140;BME280;29803;51.048;4.686;2023-04-08T00:17:47;102263.69;;;7.72;100.00
44140;BME280;29803;51.048;4.686;2023-04-08T00:20:18;102263.81;;;7.70;100.00
44140;BME280;29803;51.048;4.686;2023-04-08T00:22:49;102267.34;;;7.71;100.00
44140;BME280;29803;51.048;4.686;2023-04-08T00:25:20;102257.50;;;7.71;100.00
44140;BME280;29803;51.048;4.686;2023-04-08T00:27:50;102263.69;;;7.72;100.00
44140;BME280;29803;51.048;4.686;2023-04-08T00:30:21;102263.94;;;7.69;100.00
44140;BME280;29803;51.048;4.686;2023-04-08T00:32:51;102263.94;;;7.69;100.00
44140;BME280;29803;51.048;4.686;2023-04-08T00:35:22;102264.88;;;7.68;100.00
44140;BME280;29803;51.048;4.686;2023-04-08T00:37:52;102262.19;;;7.68;100.00
44140;BME280;29803;51.048;4.686;2023-04-08T00:40:23;102272.03;;;7.67;100.00
44140;BME280;29803;51.048;4.686;2023-04-08T00:42:56;102262.44;;;7.65;100.00
44140;BME280;29803;51.048;4.686;2023-04-08T00:45:27;102273.00;;;7.66;100.00
44140;BME280;29803;51.048;4.686;2023-04-08T00:47:57;102271.31;;;7.65;100.00
44140;BME280;29803;51.048;4.686;2023-04-08T00:50:28;102269.63;;;7.64;100.00
44140;BME280;29803;51.048;4.686;2023-04-08T00:52:58;102273.13;;;7.65;100.00
44140;BME280;29803;51.048;4.686;2023-04-08T00:55:29;102283.81;;;7.65;100.00
44140;BME280;29803;51.048;4.686;2023-04-08T00:57:59;102280.28;;;7.64;100.00
44140;BME280;29803;51.048;4.686;2023-04-08T01:00:30;102275.03;;;7.63;100.00
44140;BME280;29803;51.048;4.686;2023-04-08T01:03:23;102279.53;;;7.62;100.00
44140;BME280;29803;51.048;4.686;2023-04-08T01:08:49;102276.00;;;7.62;100.00
44140;BME280;29803;51.048;4.686;2023-04-08T01:11:21;102281.34;;;7.62;100.00
44140;BME280;29803;51.048;4.686;2023-04-08T01:14:19;102280.38;;;7.63;100.00
44140;BME280;29803;51.048;4.686;2023-04-08T01:17:10;102281.34;;;7.62;100.00
44140;BME280;29803;51.048;4.686;2023-04-08T01:19:42;102280.63;;;7.60;100.00
44140;BME280;29803;51.048;4.686;2023-04-08T01:22:25;102283.31;;;7.60;100.00
44140;BME280;29803;51.048;4.686;2023-04-08T01:25:19;102286.69;;;7.62;100.00
44140;BME280;29803;51.048;4.686;2023-04-08T01:28:12;102277.00;;;7.61;100.00
44140;BME280;29803;51.048;4.686;2023-04-08T01:30:45;102282.13;;;7.64;100.00
44140;BME280;29803;51.048;4.686;2023-04-08T01:33:17;102285.41;;;7.67;100.00
44140;BME280;29803;51.048;4.686;2023-04-08T01:35:59;102280.06;;;7.67;100.00
44140;BME280;29803;51.048;4.686;2023-04-08T01:38:30;102288.06;;;7.67;100.00
44140;BME280;29803;51.048;4.686;2023-04-08T01:41:03;102284.53;;;7.67;100.00
44140;BME280;29803;51.048;4.686;2023-04-08T01:43:35;102288.06;;;7.67;100.00
44140;BME280;29803;51.048;4.686;2023-04-08T01:46:07;102281.78;;;7.68;100.00
44140;BME280;29803;51.048;4.686;2023-04-08T01:48:39;102287.22;;;7.67;100.00
44140;BME280;29803;51.048;4.686;2023-04-08T01:51:10;102289.16;;;7.65;100.00
44140;BME280;29803;51.048;4.686;2023-04-08T01:53:40;102294.50;;;7.65;100.00
44140;BME280;29803;51.048;4.686;2023-04-08T01:56:14;102284.78;;;7.64;100.00
44140;BME280;29803;51.048;4.686;2023-04-08T01:58:49;102288.53;;;7.61;100.00
44140;BME280;29803;51.048;4.686;2023-04-08T02:01:21;102286.81;;;7.60;100.00
44140;BME280;29803;51.048;4.686;2023-04-08T02:03:56;102293.00;;;7.61;100.00
44140;BME280;29803;51.048;4.686;2023-04-08T02:06:27;102286.09;;;7.58;100.00
44140;BME280;29803;51.048;4.686;2023-04-08T02:08:59;102290.69;;;7.56;100.00
44140;BME280;29803;51.048;4.686;2023-04-08T02:11:31;102295.91;;;7.58;100.00
44140;BME280;29803;51.048;4.686;2023-04-08T02:14:01;102293.00;;;7.61;100.00
44140;BME280;29803;51.048;4.686;2023-04-08T02:16:39;102289.50;;;7.60;100.00
44140;BME280;29803;51.048;4.686;2023-04-08T02:19:16;102286.94;;;7.59;100.00
44140;BME280;29803;51.048;4.686;2023-04-08T02:21:51;102286.19;;;7.57;100.00
44140;BME280;29803;51.048;4.686;2023-04-08T02:24:25;102290.56;;;7.58;100.00
44140;BME280;29803;51.048;4.686;2023-04-08T02:26:57;102292.50;;;7.56;100.00
44140;BME280;29803;51.048;4.686;2023-04-08T02:29:31;102288.84;;;7.57;100.00
44140;BME280;29803;51.048;4.686;2023-04-08T02:32:03;102290.78;;;7.55;100.00
44140;BME280;29803;51.048;4.686;2023-04-08T02:34:34;102292.63;;;7.54;100.00
44140;BME280;29803;51.048;4.686;2023-04-08T02:37:07;102290.91;;;7.53;100.00
44140;BME280;29803;51.048;4.686;2023-04-08T02:39:38;102291.00;;;7.51;100.00
44140;BME280;29803;51.048;4.686;2023-04-08T02:42:08;102292.81;;;7.51;100.00
44140;BME280;29803;51.048;4.686;2023-04-08T02:44:39;102292.72;;;7.52;100.00
44140;BME280;29803;51.048;4.686;2023-04-08T02:47:10;102295.50;;;7.51;100.00
44140;BME280;29803;51.048;4.686;2023-04-08T02:49:40;102295.50;;;7.51;100.00
44140;BME280;29803;51.048;4.686;2023-04-08T02:52:11;102298.16;;;7.51;100.00
44140;BME280;29803;51.048;4.686;2023-04-08T02:54:41;102301.69;;;7.51;100.00
44140;BME280;29803;51.048;4.686;2023-04-08T02:57:11;102307.88;;;7.52;100.00
44140;BME280;29803;51.048;4.686;2023-04-08T02:59:42;102301.59;;;7.53;100.00
44140;BME280;29803;51.048;4.686;2023-04-08T03:02:12;102314.84;;;7.55;100.00
44140;BME280;29803;51.048;4.686;2023-04-08T03:04:43;102305.84;;;7.56;100.00
44140;BME280;29803;51.048;4.686;2023-04-08T03:07:13;102310.13;;;7.58;100.00
44140;BME280;29803;51.048;4.686;2023-04-08T03:09:44;102316.41;;;7.57;100.00
44140;BME280;29803;51.048;4.686;2023-04-08T03:12:14;102305.84;;;7.56;100.00
44140;BME280;29803;51.048;4.686;2023-04-08T03:14:45;102316.66;;;7.54;100.00
44140;BME280;29803;51.048;4.686;2023-04-08T03:17:15;102312.16;;;7.55;100.00
44140;BME280;29803;51.048;4.686;2023-04-08T03:19:46;102309.38;;;7.56;100.00
44140;BME280;29803;51.048;4.686;2023-04-08T03:22:18;102304.88;;;7.57;100.00
44140;BME280;29803;51.048;4.686;2023-04-08T03:24:48;102306.56;;;7.58;100.00
44140;BME280;29803;51.048;4.686;2023-04-08T03:27:19;102305.72;;;7.57;100.00
44140;BME280;29803;51.048;4.686;2023-04-08T03:29:49;102309.25;;;7.58;100.00
44140;BME280;29803;51.048;4.686;2023-04-08T03:32:20;102304.88;;;7.57;100.00
44140;BME280;29803;51.048;4.686;2023-04-08T03:34:50;102303.91;;;7.58;100.00
44140;BME280;29803;51.048;4.686;2023-04-08T03:37:21;102318.16;;;7.58;100.00
44140;BME280;29803;51.048;4.686;2023-04-08T03:39:53;102310.13;;;7.58;100.00
44140;BME280;29803;51.048;4.686;2023-04-08T03:42:24;102318.22;;;7.57;100.00
44140;BME280;29803;51.048;4.686;2023-04-08T03:44:54;102321.88;;;7.56;100.00
44140;BME280;29803;51.048;4.686;2023-04-08T03:47:25;102320.06;;;7.56;100.00
44140;BME280;29803;51.048;4.686;2023-04-08T03:49:56;102325.41;;;7.56;100.00
44140;BME280;29803;51.048;4.686;2023-04-08T03:52:26;102327.22;;;7.56;100.00
44140;BME280;29803;51.048;4.686;2023-04-08T03:54:57;102329.88;;;7.56;100.00
44140;BME280;29803;51.048;4.686;2023-04-08T03:57:27;102326.25;;;7.57;100.00
44140;BME280;29803;51.048;4.686;2023-04-08T03:59:58;102333.41;;;7.56;100.00
44140;BME280;29803;51.048;4.686;2023-04-08T04:02:28;102331.59;;;7.57;100.00
44140;BME280;29803;51.048;4.686;2023-04-08T04:04:59;102334.25;;;7.57;100.00
44140;BME280;29803;51.048;4.686;2023-04-08T04:07:29;102335.22;;;7.56;100.00
44140;BME280;29803;51.048;4.686;2023-04-08T04:10:00;102335.22;;;7.56;100.00
44140;BME280;29803;51.048;4.686;2023-04-08T04:12:30;102331.59;;;7.57;100.00
44140;BME280;29803;51.048;4.686;2023-04-08T04:15:01;102331.59;;;7.57;100.00
44140;BME280;29803;51.048;4.686;2023-04-08T04:17:31;102336.94;;;7.57;100.00
44140;BME280;29803;51.048;4.686;2023-04-08T04:20:04;102333.28;;;7.58;100.00
44140;BME280;29803;51.048;4.686;2023-04-08T04:22:35;102337.56;;;7.60;100.00
44140;BME280;29803;51.048;4.686;2023-04-08T04:25:06;102343.03;;;7.59;100.00
44140;BME280;29803;51.048;4.686;2023-04-08T04:27:37;102338.75;;;7.56;100.00
44140;BME280;29803;51.048;4.686;2023-04-08T04:30:08;102342.28;;;7.57;100.00
44140;BME280;29803;51.048;4.686;2023-04-08T04:32:38;102342.38;;;7.55;100.00
44140;BME280;29803;51.048;4.686;2023-04-08T04:35:10;102343.97;;;7.58;100.00
44140;BME280;29803;51.048;4.686;2023-04-08T04:37:41;102350.91;;;7.60;100.00
44140;BME280;29803;51.048;4.686;2023-04-08T04:40:11;102343.63;;;7.62;100.00
44140;BME280;29803;51.048;4.686;2023-04-08T04:42:42;102348.38;;;7.59;100.00
44140;BME280;29803;51.048;4.686;2023-04-08T04:45:12;102353.59;;;7.60;100.00
44140;BME280;29803;51.048;4.686;2023-04-08T04:47:43;102353.38;;;7.63;100.00
44140;BME280;29803;51.048;4.686;2023-04-08T04:50:13;102357.97;;;7.61;100.00
44140;BME280;29803;51.048;4.686;2023-04-08T04:52:44;102366.75;;;7.63;100.00
44140;BME280;29803;51.048;4.686;2023-04-08T04:55:15;102360.63;;;7.61;100.00
44140;BME280;29803;51.048;4.686;2023-04-08T04:57:45;102351.03;;;7.59;100.00
44140;BME280;29803;51.048;4.686;2023-04-08T05:00:16;102355.75;;;7.55;100.00
44140;BME280;29803;51.048;4.686;2023-04-08T05:02:46;102361.09;;;7.55;100.00
44140;BME280;29803;51.048;4.686;2023-04-08T05:05:17;102358.41;;;7.55;100.00
44140;BME280;29803;51.048;4.686;2023-04-08T05:07:47;102353.06;;;7.55;100.00
44140;BME280;29803;51.048;4.686;2023-04-08T05:10:18;102349.56;;;7.55;100.00
44140;BME280;29803;51.048;4.686;2023-04-08T05:12:48;102347.94;;;7.52;100.00
44140;BME280;29803;51.048;4.686;2023-04-08T05:15:19;102344.13;;;7.43;100.00
44140;BME280;29803;51.048;4.686;2023-04-08T05:17:50;102345.50;;;7.36;100.00
44140;BME280;29803;51.048;4.686;2023-04-08T05:20:20;102352.34;;;7.27;100.00
44140;BME280;29803;51.048;4.686;2023-04-08T05:22:51;102354.59;;;7.21;100.00
44140;BME280;29803;51.048;4.686;2023-04-08T05:25:21;102357.72;;;7.15;100.00
44140;BME280;29803;51.048;4.686;2023-04-08T05:27:52;102358.69;;;7.14;100.00
44140;BME280;29803;51.048;4.686;2023-04-08T05:30:22;102361.34;;;7.14;100.00
44140;BME280;29803;51.048;4.686;2023-04-08T05:32:53;102363.78;;;7.17;100.00
44140;BME280;29803;51.048;4.686;2023-04-08T05:35:23;102362.72;;;7.19;100.00
44140;BME280;29803;51.048;4.686;2023-04-08T05:37:54;102369.13;;;7.30;100.00
44140;BME280;29803;51.048;4.686;2023-04-08T05:40:25;102372.31;;;7.35;100.00
44140;BME280;29803;51.048;4.686;2023-04-08T05:42:56;102372.22;;;7.36;100.00
44140;BME280;29803;51.048;4.686;2023-04-08T05:45:28;102378.31;;;7.38;100.00
44140;BME280;29803;51.048;4.686;2023-04-08T05:47:59;102382.69;;;7.39;100.00
44140;BME280;29803;51.048;4.686;2023-04-08T05:50:30;102382.38;;;7.44;100.00
44140;BME280;29803;51.048;4.686;2023-04-08T05:53:00;102387.78;;;7.55;100.00
44140;BME280;29803;51.048;4.686;2023-04-08T05:55:31;102382.53;;;7.66;100.00
44140;BME280;29803;51.048;4.686;2023-04-08T05:58:01;102385.28;;;7.77;100.00
44140;BME280;29803;51.048;4.686;2023-04-08T06:00:32;102393.47;;;7.87;100.00
44140;BME280;29803;51.048;4.686;2023-04-08T06:03:02;102401.81;;;7.95;100.00
44140;BME280;29803;51.048;4.686;2023-04-08T06:05:33;102396.00;;;8.01;100.00
44140;BME280;29803;51.048;4.686;2023-04-08T06:08:03;102402.72;;;8.07;100.00
44140;BME280;29803;51.048;4.686;2023-04-08T06:10:34;102401.53;;;8.11;100.00
44140;BME280;29803;51.048;4.686;2023-04-08T06:13:05;102401.22;;;8.16;100.00
44140;BME280;29803;51.048;4.686;2023-04-08T06:15:36;102399.91;;;8.21;100.00
44140;BME280;29803;51.048;4.686;2023-04-08T06:18:06;102410.59;;;8.21;100.00
44140;BME280;29803;51.048;4.686;2023-04-08T06:20:37;102413.25;;;8.21;100.00
44140;BME280;29803;51.048;4.686;2023-04-08T06:23:07;102415.59;;;8.26;100.00
44140;BME280;29803;51.048;4.686;2023-04-08T06:25:38;102417.09;;;8.30;100.00
44140;BME280;29803;51.048;4.686;2023-04-08T06:28:08;102425.41;;;8.38;100.00
44140;BME280;29803;51.048;4.686;2023-04-08T06:30:39;102424.13;;;8.44;100.00
44140;BME280;29803;51.048;4.686;2023-04-08T06:33:09;102425.38;;;8.51;100.00
44140;BME280;29803;51.048;4.686;2023-04-08T06:35:40;102432.94;;;8.57;100.00
44140;BME280;29803;51.048;4.686;2023-04-08T06:38:10;102440.91;;;8.70;100.00
44140;BME280;29803;51.048;4.686;2023-04-08T06:40:41;102435.94;;;8.76;100.00
44140;BME280;29803;51.048;4.686;2023-04-08T06:43:11;102432.19;;;8.79;100.00
44140;BME280;29803;51.048;4.686;2023-04-08T06:45:42;102432.22;;;8.90;100.00
44140;BME280;29803;51.048;4.686;2023-04-08T06:48:12;102434.28;;;8.98;100.00
44140;BME280;29803;51.048;4.686;2023-04-08T06:50:43;102429.00;;;9.09;100.00
44140;BME280;29803;51.048;4.686;2023-04-08T06:53:13;102436.69;;;9.14;100.00
44140;BME280;29803;51.048;4.686;2023-04-08T06:55:44;102432.91;;;9.16;100.00
44140;BME280;29803;51.048;4.686;2023-04-08T06:58:14;102442.63;;;9.28;100.00
44140;BME280;29803;51.048;4.686;2023-04-08T07:00:45;102435.94;;;9.23;100.00
44140;BME280;29803;51.048;4.686;2023-04-08T07:03:16;102438.41;;;9.26;100.00
44140;BME280;29803;51.048;4.686;2023-04-08T07:05:46;102440.81;;;9.18;100.00
44140;BME280;29803;51.048;4.686;2023-04-08T07:08:17;102447.47;;;9.12;100.00
44140;BME280;29803;51.048;4.686;2023-04-08T07:10:48;102456.00;;;9.17;100.00
44140;BME280;29803;51.048;4.686;2023-04-08T07:13:18;102454.19;;;9.18;100.00
44140;BME280;29803;51.048;4.686;2023-04-08T07:15:49;102463.94;;;9.19;100.00
44140;BME280;29803;51.048;4.686;2023-04-08T07:18:20;102457.50;;;9.32;100.00
44140;BME280;29803;51.048;4.686;2023-04-08T07:20:51;102465.44;;;9.34;100.00
44140;BME280;29803;51.048;4.686;2023-04-08T07:23:23;102467.03;;;9.37;100.00
44140;BME280;29803;51.048;4.686;2023-04-08T07:25:53;102470.81;;;9.56;100.00
44140;BME280;29803;51.048;4.686;2023-04-08T07:28:24;102462.78;;;9.56;100.00
44140;BME280;29803;51.048;4.686;2023-04-08T07:30:55;102479.59;;;9.58;100.00
44140;BME280;29803;51.048;4.686;2023-04-08T07:33:26;102479.13;;;9.65;100.00
44140;BME280;29803;51.048;4.686;2023-04-08T07:35:57;102477.53;;;9.73;100.00
44140;BME280;29803;51.048;4.686;2023-04-08T07:38:28;102477.28;;;9.76;100.00
44140;BME280;29803;51.048;4.686;2023-04-08T07:40:59;102474.00;;;9.95;100.00
44140;BME280;29803;51.048;4.686;2023-04-08T07:43:31;102482.28;;;10.03;100.00
44140;BME280;29803;51.048;4.686;2023-04-08T07:46:02;102483.38;;;10.12;100.00
44140;BME280;29803;51.048;4.686;2023-04-08T07:48:34;102483.16;;;10.26;100.00
44140;BME280;29803;51.048;4.686;2023-04-08T07:51:06;102483.00;;;10.28;100.00
44140;BME280;29803;51.048;4.686;2023-04-08T07:53:37;102491.19;;;10.26;100.00
44140;BME280;29803;51.048;4.686;2023-04-08T07:56:11;102487.88;;;10.34;100.00
44140;BME280;29803;51.048;4.686;2023-04-08T07:58:41;102494.47;;;10.41;100.00
44140;BME280;29803;51.048;4.686;2023-04-08T08:01:31;102500.06;;;10.38;100.00
44140;BME280;29803;51.048;4.686;2023-04-08T08:04:04;102495.22;;;10.32;100.00
44140;BME280;29803;51.048;4.686;2023-04-08T08:06:34;102497.75;;;10.22;100.00
44140;BME280;29803;51.048;4.686;2023-04-08T08:09:05;102499.72;;;10.20;100.00
44140;BME280;29803;51.048;4.686;2023-04-08T08:11:35;102508.84;;;10.29;100.00
44140;BME280;29803;51.048;4.686;2023-04-08T08:14:06;102506.41;;;10.37;100.00
44140;BME280;29803;51.048;4.686;2023-04-08T08:16:37;102506.28;;;10.50;100.00
44140;BME280;29803;51.048;4.686;2023-04-08T08:19:07;102513.66;;;10.80;100.00
44140;BME280;29803;51.048;4.686;2023-04-08T08:21:38;102514.31;;;10.93;100.00
44140;BME280;29803;51.048;4.686;2023-04-08T08:24:08;102508.69;;;10.96;100.00
44140;BME280;29803;51.048;4.686;2023-04-08T08:26:39;102511.31;;;11.07;100.00
44140;BME280;29803;51.048;4.686;2023-04-08T08:29:09;102506.72;;;10.98;100.00
44140;BME280;29803;51.048;4.686;2023-04-08T08:31:40;102520.38;;;11.06;100.00
44140;BME280;29803;51.048;4.686;2023-04-08T08:34:10;102524.03;;;11.05;100.00
44140;BME280;29803;51.048;4.686;2023-04-08T08:36:41;102524.28;;;11.02;100.00
44140;BME280;29803;51.048;4.686;2023-04-08T08:39:11;102527.13;;;11.01;100.00
44140;BME280;29803;51.048;4.686;2023-04-08T08:41:42;102525.22;;;11.12;100.00
44140;BME280;29803;51.048;4.686;2023-04-08T08:44:13;102528.03;;;11.11;100.00
44140;BME280;29803;51.048;4.686;2023-04-08T08:46:44;102536.25;;;11.09;100.00
44140;BME280;29803;51.048;4.686;2023-04-08T08:49:16;102534.50;;;11.08;100.00
44140;BME280;29803;51.048;4.686;2023-04-08T08:51:47;102536.19;;;11.21;100.00
44140;BME280;29803;51.048;4.686;2023-04-08T08:54:20;102538.94;;;11.09;100.00
44140;BME280;29803;51.048;4.686;2023-04-08T08:56:52;102537.34;;;11.07;100.00
44140;BME280;29803;51.048;4.686;2023-04-08T08:59:23;102540.81;;;11.19;100.00
44140;BME280;29803;51.048;4.686;2023-04-08T09:01:53;102540.91;;;11.28;100.00
44140;BME280;29803;51.048;4.686;2023-04-08T09:04:24;102537.91;;;11.43;100.00
44140;BME280;29803;51.048;4.686;2023-04-08T09:07:13;102537.75;;;11.44;100.00
44140;BME280;29803;51.048;4.686;2023-04-08T09:10:02;102539.19;;;11.48;100.00
44140;BME280;29803;51.048;4.686;2023-04-08T09:12:33;102544.19;;;11.53;100.00
44140;BME280;29803;51.048;4.686;2023-04-08T09:15:22;102535.41;;;11.72;100.00
44140;BME280;29803;51.048;4.686;2023-04-08T09:17:53;102538.28;;;12.01;100.00
44140;BME280;29803;51.048;4.686;2023-04-08T09:20:23;102527.47;;;12.81;100.00
44140;BME280;29803;51.048;4.686;2023-04-08T09:22:54;102521.13;;;13.87;100.00
44140;BME280;29803;51.048;4.686;2023-04-08T09:25:27;102523.84;;;14.70;100.00
44140;BME280;29803;51.048;4.686;2023-04-08T09:27:59;102516.81;;;15.31;100.00
44140;BME280;29803;51.048;4.686;2023-04-08T09:30:31;102527.63;;;15.31;100.00
44140;BME280;29803;51.048;4.686;2023-04-08T09:33:01;102522.41;;;15.55;100.00
44140;BME280;29803;51.048;4.686;2023-04-08T09:35:36;102528.94;;;15.44;100.00
44140;BME280;29803;51.048;4.686;2023-04-08T09:38:07;102526.59;;;14.88;100.00
44140;BME280;29803;51.048;4.686;2023-04-08T09:40:38;102527.13;;;14.91;100.00
44140;BME280;29803;51.048;4.686;2023-04-08T09:43:12;102528.13;;;14.17;100.00
44140;BME280;29803;51.048;4.686;2023-04-08T09:45:44;102523.59;;;13.71;100.00
44140;BME280;29803;51.048;4.686;2023-04-08T09:48:21;102528.91;;;13.34;100.00
44140;BME280;29803;51.048;4.686;2023-04-08T09:50:54;102532.31;;;13.26;100.00
44140;BME280;29803;51.048;4.686;2023-04-08T09:53:46;102522.78;;;13.61;100.00
44140;BME280;29803;51.048;4.686;2023-04-08T09:56:18;102535.97;;;13.54;100.00
44140;BME280;29803;51.048;4.686;2023-04-08T09:58:53;102527.19;;;13.42;100.00
44140;BME280;29803;51.048;4.686;2023-04-08T10:01:38;102527.44;;;13.59;100.00
44140;BME280;29803;51.048;4.686;2023-04-08T10:04:13;102517.78;;;13.66;100.00
44140;BME280;29803;51.048;4.686;2023-04-08T10:06:44;102527.03;;;13.54;100.00
44140;BME280;29803;51.048;4.686;2023-04-08T10:09:21;102529.25;;;13.78;100.00
44140;BME280;29803;51.048;4.686;2023-04-08T10:11:52;102524.97;;;14.22;100.00
44140;BME280;29803;51.048;4.686;2023-04-08T10:14:23;102521.53;;;14.57;100.00
44140;BME280;29803;51.048;4.686;2023-04-08T10:17:29;102514.06;;;15.05;100.00
44140;BME280;29803;51.048;4.686;2023-04-08T10:23:16;102527.25;;;14.90;100.00
44140;BME280;29803;51.048;4.686;2023-04-08T10:25:48;102528.72;;;14.84;100.00
44140;BME280;29803;51.048;4.686;2023-04-08T10:30:50;102519.44;;;14.14;100.00
44140;BME280;29803;51.048;4.686;2023-04-08T10:33:30;102512.56;;;14.29;100.00
44140;BME280;29803;51.048;4.686;2023-04-08T10:36:19;102512.44;;;14.58;100.00
44140;BME280;29803;51.048;4.686;2023-04-08T10:38:49;102513.81;;;14.80;100.00
44140;BME280;29803;51.048;4.686;2023-04-08T10:41:23;102511.06;;;15.08;100.00
44140;BME280;29803;51.048;4.686;2023-04-08T10:43:53;102514.91;;;15.05;100.00
44140;BME280;29803;51.048;4.686;2023-04-08T10:46:26;102512.84;;;15.17;100.00
44140;BME280;29803;51.048;4.686;2023-04-08T10:48:59;102517.94;;;15.02;100.00
44140;BME280;29803;51.048;4.686;2023-04-08T10:51:31;102523.16;;;14.86;100.00
44140;BME280;29803;51.048;4.686;2023-04-08T10:54:20;102518.16;;;14.73;100.00
44140;BME280;29803;51.048;4.686;2023-04-08T10:56:52;102523.63;;;14.63;100.00
44140;BME280;29803;51.048;4.686;2023-04-08T10:59:42;102516.06;;;14.39;100.00
44140;BME280;29803;51.048;4.686;2023-04-08T11:02:13;102518.00;;;14.57;100.00
44140;BME280;29803;51.048;4.686;2023-04-08T11:04:44;102521.41;;;14.76;100.00
44140;BME280;29803;51.048;4.686;2023-04-08T11:07:19;102512.84;;;15.17;100.00
44140;BME280;29803;51.048;4.686;2023-04-08T11:09:50;102506.34;;;15.53;100.00
44140;BME280;29803;51.048;4.686;2023-04-08T11:12:21;102510.09;;;15.35;100.00
44140;BME280;29803;51.048;4.686;2023-04-08T11:14:52;102507.81;;;14.68;100.00
44140;BME280;29803;51.048;4.686;2023-04-08T11:17:23;102510.81;;;14.83;100.00
44140;BME280;29803;51.048;4.686;2023-04-08T11:19:53;102511.19;;;14.53;100.00
44140;BME280;29803;51.048;4.686;2023-04-08T11:22:24;102509.16;;;14.27;100.00
44140;BME280;29803;51.048;4.686;2023-04-08T11:24:55;102511.19;;;14.15;100.00
44140;BME280;29803;51.048;4.686;2023-04-08T11:27:26;102505.06;;;14.23;100.00
44140;BME280;29803;51.048;4.686;2023-04-08T11:29:57;102500.75;;;14.03;100.00
44140;BME280;29803;51.048;4.686;2023-04-08T11:32:28;102501.09;;;13.90;100.00
44140;BME280;29803;51.048;4.686;2023-04-08T11:34:59;102504.28;;;13.76;100.00
44140;BME280;29803;51.048;4.686;2023-04-08T11:37:48;102505.59;;;13.62;100.00
44140;BME280;29803;51.048;4.686;2023-04-08T11:40:20;102499.59;;;13.68;100.00
44140;BME280;29803;51.048;4.686;2023-04-08T11:42:51;102503.34;;;13.57;100.00
44140;BME280;29803;51.048;4.686;2023-04-08T11:45:22;102503.19;;;13.59;100.00
44140;BME280;29803;51.048;4.686;2023-04-08T11:47:53;102497.09;;;13.47;100.00
44140;BME280;29803;51.048;4.686;2023-04-08T11:50:24;102504.47;;;13.55;100.00
44140;BME280;29803;51.048;4.686;2023-04-08T11:52:55;102503.69;;;13.82;100.00
44140;BME280;29803;51.048;4.686;2023-04-08T11:55:28;102506.25;;;14.38;100.00
44140;BME280;29803;51.048;4.686;2023-04-08T11:58:17;102513.44;;;14.75;100.00
44140;BME280;29803;51.048;4.686;2023-04-08T12:00:47;102500.16;;;15.17;100.00
44140;BME280;29803;51.048;4.686;2023-04-08T12:03:18;102500.56;;;15.66;100.00
44140;BME280;29803;51.048;4.686;2023-04-08T12:05:48;102504.03;;;15.85;100.00
44140;BME280;29803;51.048;4.686;2023-04-08T12:08:19;102503.28;;;15.48;100.00
44140;BME280;29803;51.048;4.686;2023-04-08T12:10:49;102498.78;;;15.13;100.00
44140;BME280;29803;51.048;4.686;2023-04-08T12:13:20;102501.56;;;15.21;100.00
44140;BME280;29803;51.048;4.686;2023-04-08T12:15:51;102492.38;;;15.40;100.00
44140;BME280;29803;51.048;4.686;2023-04-08T12:18:21;102491.88;;;15.63;100.00
44140;BME280;29803;51.048;4.686;2023-04-08T12:20:52;102494.22;;;15.84;100.00
44140;BME280;29803;51.048;4.686;2023-04-08T12:23:24;102495.91;;;15.85;100.00
44140;BME280;29803;51.048;4.686;2023-04-08T12:25:54;102487.50;;;15.96;100.00
44140;BME280;29803;51.048;4.686;2023-04-08T12:28:25;102484.66;;;16.05;100.00
44140;BME280;29803;51.048;4.686;2023-04-08T12:30:55;102487.03;;;16.00;100.00
44140;BME280;29803;51.048;4.686;2023-04-08T12:33:26;102482.91;;;15.88;100.00
44140;BME280;29803;51.048;4.686;2023-04-08T12:35:56;102487.63;;;16.20;100.00
44140;BME280;29803;51.048;4.686;2023-04-08T12:38:28;102487.75;;;16.11;100.00
44140;BME280;29803;51.048;4.686;2023-04-08T12:40:59;102492.72;;;16.23;100.00
44140;BME280;29803;51.048;4.686;2023-04-08T12:43:29;102486.53;;;16.05;100.00
44140;BME280;29803;51.048;4.686;2023-04-08T12:46:01;102483.22;;;16.19;100.00
44140;BME280;29803;51.048;4.686;2023-04-08T12:48:32;102483.09;;;16.29;100.00
44140;BME280;29803;51.048;4.686;2023-04-08T12:51:03;102477.97;;;15.84;100.00
44140;BME280;29803;51.048;4.686;2023-04-08T12:53:33;102474.78;;;15.62;100.00
44140;BME280;29803;51.048;4.686;2023-04-08T12:56:04;102467.63;;;15.53;100.00
44140;BME280;29803;51.048;4.686;2023-04-08T12:58:34;102468.41;;;15.97;100.00
44140;BME280;29803;51.048;4.686;2023-04-08T13:01:05;102466.69;;;15.88;100.00
44140;BME280;29803;51.048;4.686;2023-04-08T13:03:35;102470.47;;;15.69;100.00
44140;BME280;29803;51.048;4.686;2023-04-08T13:06:06;102478.41;;;16.05;100.00
44140;BME280;29803;51.048;4.686;2023-04-08T13:08:36;102479.25;;;16.05;100.00
44140;BME280;29803;51.048;4.686;2023-04-08T13:11:07;102465.06;;;16.03;100.00
44140;BME280;29803;51.048;4.686;2023-04-08T13:13:38;102470.81;;;16.09;100.00
44140;BME280;29803;51.048;4.686;2023-04-08T13:16:08;102468.00;;;16.26;100.00
44140;BME280;29803;51.048;4.686;2023-04-08T13:18:40;102471.94;;;16.40;100.00